South Coast: Past 24 Hour Conditions

 

Banquereau - 44139

02:00 AM AST 19 December 2014Buoy position: 44.27N 57.08W
Disclaimer

This table is a summary of hourly weather conditions for the past 24 hours.
Please note that these observations might not always be representative of weather conditions over their associated marine area.

Date / Time
(AST)
Wind(knots) Wave height(m) Wave period(s) Pressure(kPa) Air tempC) Water tempC)
19 December 2014
2:00 SW 21 gust 25 3.1 8.0 99.9 8 8
1:00 SW 16 gust 18 2.9 8.0 99.8 8 7
0:00 WSW 19 gust 23 3.0 8.0 99.8 8 7
18 December 2014
23:00 SSW 4 gust 8 2.8 8.0 99.7 8 7
22:00 W 4 gust 8 2.8 9.0 99.7 9 8
21:00 ESE 16 gust 21 2.8 8.0 99.7 9 8
20:00 E 19 gust 23 3.0 9.0 99.8 9 7
19:00 E 14 gust 18 3.1 8.0 99.9 8 7
18:00 E 12 gust 14 2.9 9.0 100.1 8 7
17:00 ESE 8 gust 10 2.9 8.0 100.3 8 7
16:00 SE 4 gust 6 3.0 9.0 100.3 8 7
15:00 SSE 4 gust 6 3.2 9.0 100.3 8 7
14:00 S 2 N/A N/A 100.3 9 N/A
13:00 SW 2 gust 6 3.0 8.0 100.4 9 7
12:00 SW 4 gust 6 3.3 8.0 100.4 9 7
11:00 SW 8 gust 12 3.3 7.0 100.5 9 7
10:00 SE 19 gust 23 3.3 11.0 100.5 10 7
9:00 SE 21 gust 25 2.9 6.0 100.5 10 7
8:00 ESE 21 gust 25 3.0 6.0 100.6 9 7
7:00 ESE 23 gust 27 2.8 6.0 100.6 9 7
6:00 ESE 23 gust 29 2.7 6.0 100.7 8 7
5:00 ESE 23 gust 27 2.5 11.0 100.8 8 7
4:00 ESE 21 gust 27 2.5 11.0 101.0 8 7
3:00 ESE 21 gust 27 2.4 8.0 101.1 7 7
2:00 ESE 19 gust 23 2.4 11.0 101.2 7 7
Map of Atlantic - Newfoundland marine weather areas Southwestern Grand Banks - 44138 Banquereau - 44139 Tail of the Bank - 44140 Nickerson Bank - 44251 Northeast Burgeo Bank - 44255 Blanc-Sablon Airport Cap Whittle Chevery Natashquan Airport Heath Point Miscou Island Grand Étang Ingonish Beach North Mountain St.Paul Island J.A. Douglas McCurdy Sydney Airport Charlottetown Airport East Point North Cape Argentia Bonavista Burgeo Cape Race Corner Brook Daniel's Harbour Englee Ferolle Point La Scie Port aux Basques Rocky Harbour Sagona Island St. Anthony Airport St. John's Int'l Airport St. Lawrence Stephenville Airport Twillingate Winterland Wreckhouse Cartwright Airport Mary's Harbour Grates Cove Pool's Island Marticot Island Long Pond Îles de la Madeleine Airport
Legend:
buoy Buoy
land station Land Station

Atlantic - Newfoundland Area

Another Region

What we are doing

Date modified: